Time;durP1;ratioP1;P1;durP2;ratioP2;P2;SDS_P1;SDS_P2;PMS_P1;PMS_P2;Temp;Humidity;BMP_temperature;BMP_pressure;BME280_temperature;BME280_humidity;BME280_pressure;Samples;Min_cycle;Max_cycle;Signal;HPM_P1;HPM_P2
2022/08/21 00:00:26;;;;;;;;;0.75;0.75;;;;;22.00;61.36;99210.22;5075015;28;45495;-65
2022/08/21 00:02:58;;;;;;;;;0.20;0.20;;;;;21.94;61.90;99209.75;5074021;28;45321;-66
2022/08/21 00:05:25;;;;;;;;;0.60;0.60;;;;;21.91;62.18;99204.63;5074628;28;45404;-65
2022/08/21 00:07:51;;;;;;;;;0.40;0.40;;;;;21.91;62.19;99204.63;5074104;28;46684;-66
2022/08/21 00:10:18;;;;;;;;;0.50;0.50;;;;;21.90;62.30;99202.94;5074863;28;45326;-66
2022/08/21 00:12:45;;;;;;;;;1.80;1.80;;;;;21.91;62.40;99206.47;5074081;28;45602;-65
2022/08/21 00:15:15;;;;;;;;;1.80;1.80;;;;;21.91;62.25;99203.78;5073787;28;45477;-65
2022/08/21 00:17:41;;;;;;;;;0.60;0.60;;;;;21.90;62.65;99205.63;5073003;28;46389;-66
2022/08/21 00:20:09;;;;;;;;;2.00;1.50;;;;;21.90;63.29;99207.44;5074294;28;45410;-65
2022/08/21 00:22:35;;;;;;;;;2.40;2.40;;;;;21.86;63.93;99206.84;5074209;28;45413;-65
2022/08/21 00:25:02;;;;;;;;;2.00;2.00;;;;;21.82;64.13;99200.03;5056073;28;45572;-65
2022/08/21 00:27:27;;;;;;;;;2.00;2.00;;;;;21.77;64.59;99206.78;5055228;28;45760;-65
2022/08/21 00:29:53;;;;;;;;;1.50;1.50;;;;;21.74;64.68;99207.06;5074561;28;45504;-65
2022/08/21 00:32:26;;;;;;;;;3.50;3.00;;;;;21.71;65.34;99218.88;5073944;28;45401;-65
2022/08/21 00:34:52;;;;;;;;;2.00;2.00;;;;;21.68;65.55;99213.78;5074328;28;45448;-65
2022/08/21 00:37:18;;;;;;;;;2.40;2.40;;;;;21.65;65.74;99219.41;5073234;28;45522;-65
2022/08/21 00:39:44;;;;;;;;;1.00;1.00;;;;;21.65;65.84;99214.03;5073905;28;45344;-65
2022/08/21 00:42:14;;;;;;;;;2.00;2.00;;;;;21.66;66.13;99217.56;5072322;28;45535;-64
2022/08/21 00:44:47;;;;;;;;;2.40;2.00;;;;;21.64;65.82;99217.69;5073864;28;45426;-64
2022/08/21 00:47:13;;;;;;;;;2.60;2.60;;;;;21.61;66.11;99217.13;5072933;28;47598;-65
2022/08/21 00:49:39;;;;;;;;;3.00;2.00;;;;;21.61;65.87;99219.81;5073417;28;45470;-65
2022/08/21 00:52:09;;;;;;;;;2.00;2.00;;;;;21.59;65.76;99214.56;5073560;28;45506;-65
2022/08/21 00:54:36;;;;;;;;;1.00;1.00;;;;;21.57;65.83;99209.31;5076436;28;45562;-64
2022/08/21 00:57:13;;;;;;;;;2.00;2.00;;;;;21.57;65.62;99211.16;5076864;28;45446;-64
2022/08/21 00:59:40;;;;;;;;;2.00;2.00;;;;;21.55;65.36;99202.38;5077574;28;45511;-65
2022/08/21 01:02:08;;;;;;;;;3.00;1.80;;;;;21.53;65.77;99207.88;5077829;28;45523;-67
2022/08/21 01:04:34;;;;;;;;;4.00;4.00;;;;;21.51;66.41;99212.50;5077300;28;45543;-66
2022/08/21 01:07:00;;;;;;;;;4.40;3.00;;;;;21.50;66.34;99218.84;5076565;28;46396;-66
2022/08/21 01:09:26;;;;;;;;;2.00;2.00;;;;;21.48;66.57;99215.44;5077749;28;45367;-66
2022/08/21 01:11:51;;;;;;;;;3.00;2.75;;;;;21.43;66.05;99215.00;5075644;28;45524;-67
2022/08/21 01:14:19;;;;;;;;;2.00;2.00;;;;;21.40;66.47;99209.88;5077180;28;45389;-66
2022/08/21 01:16:48;;;;;;;;;2.00;1.00;;;;;21.39;65.85;99202.81;5076609;28;47340;-66
2022/08/21 01:19:14;;;;;;;;;3.00;2.80;;;;;21.38;66.36;99202.94;5077164;28;45445;-66
2022/08/21 01:21:40;;;;;;;;;1.00;1.00;;;;;21.35;66.53;99200.50;5077201;28;45420;-66
2022/08/21 01:24:06;;;;;;;;;1.75;1.75;;;;;21.34;66.52;99205.00;5076528;28;45382;-66
2022/08/21 01:26:34;;;;;;;;;2.50;1.00;;;;;21.33;66.69;99205.13;5058496;28;47815;-65
2022/08/21 01:29:15;;;;;;;;;2.40;1.60;;;;;21.32;66.67;99206.97;5076187;28;45429;-65
2022/08/21 01:31:40;;;;;;;;;2.00;1.00;;;;;21.29;66.89;99204.53;5076436;28;45403;-66
2022/08/21 01:34:07;;;;;;;;;1.25;1.25;;;;;21.29;67.56;99209.03;5076237;28;45612;-66
2022/08/21 01:36:33;;;;;;;;;2.00;2.00;;;;;21.26;67.58;99209.31;5076185;28;45505;-66
2022/08/21 01:38:59;;;;;;;;;2.80;2.00;;;;;21.23;67.68;99215.78;5076894;28;45353;-67
2022/08/21 01:41:25;;;;;;;;;3.00;3.00;;;;;21.20;67.73;99211.53;5075987;28;45535;-66
2022/08/21 01:43:50;;;;;;;;;2.00;2.00;;;;;21.16;67.79;99207.34;5076500;28;45472;-66
2022/08/21 01:46:16;;;;;;;;;1.75;1.75;;;;;21.14;68.39;99206.63;5076374;28;46598;-65
2022/08/21 01:48:42;;;;;;;;;2.50;2.00;;;;;21.13;68.27;99204.91;5076333;28;45416;-64
2022/08/21 01:51:08;;;;;;;;;3.00;3.00;;;;;21.08;68.33;99209.81;5076297;28;45614;-67
2022/08/21 01:53:36;;;;;;;;;2.00;2.00;;;;;21.01;68.24;99205.06;5074875;28;45473;-63
2022/08/21 01:56:04;;;;;;;;;2.00;2.00;;;;;20.95;66.55;99203.72;5075938;28;46518;-63
2022/08/21 01:58:30;;;;;;;;;2.00;2.00;;;;;20.90;67.19;99196.09;5073946;28;45669;-62
2022/08/21 02:00:55;;;;;;;;;3.00;2.00;;;;;20.87;67.53;99190.97;5076375;28;45560;-63
2022/08/21 02:03:20;;;;;;;;;1.75;1.75;;;;;20.87;67.41;99198.16;5075096;28;45560;-63
2022/08/21 02:05:46;;;;;;;;;2.25;2.25;;;;;20.85;67.41;99194.75;5075359;28;46580;-62
2022/08/21 02:08:11;;;;;;;;;2.00;2.00;;;;;20.86;68.63;99199.13;5076523;28;45421;-62
2022/08/21 02:10:37;;;;;;;;;3.00;2.00;;;;;20.83;67.75;99199.38;5076919;28;45406;-62
2022/08/21 02:13:03;;;;;;;;;1.75;1.75;;;;;20.82;68.33;99200.34;5075677;28;45443;-62
2022/08/21 02:15:29;;;;;;;;;2.80;2.00;;;;;20.80;67.18;99197.78;5076239;28;46663;-62
2022/08/21 02:17:58;;;;;;;;;3.00;3.00;;;;;20.80;67.54;99200.47;5075421;28;45418;-63
2022/08/21 02:20:27;;;;;;;;;4.00;2.80;;;;;20.77;67.83;99197.22;5076209;28;45373;-63
2022/08/21 02:22:52;;;;;;;;;2.00;2.00;;;;;20.74;67.90;99200.13;5075292;28;45531;-62
2022/08/21 02:25:19;;;;;;;;;3.00;3.00;;;;;20.73;67.90;99198.44;5076561;28;46600;-62
2022/08/21 02:27:47;;;;;;;;;2.20;2.20;;;;;20.69;67.60;99196.97;5075046;28;45453;-62
2022/08/21 02:30:19;;;;;;;;;3.80;2.60;;;;;20.63;66.72;99190.25;5076049;28;45480;-63
2022/08/21 02:32:44;;;;;;;;;2.20;2.00;;;;;20.60;66.77;99193.22;5072427;28;45377;-62
2022/08/21 02:35:11;;;;;;;;;1.75;1.75;;;;;20.56;66.83;99197.09;5075595;28;46210;-65
2022/08/21 02:37:54;;;;;;;;;4.60;2.00;;;;;20.53;67.11;99205.38;5075691;28;45466;-65
2022/08/21 02:40:23;;;;;;;;;3.60;3.00;;;;;20.51;66.96;99202.81;5076187;28;45441;-64
2022/08/21 02:42:49;;;;;;;;;3.00;3.00;;;;;20.49;67.57;99190.50;5075691;28;45386;-64
2022/08/21 02:45:17;;;;;;;;;2.20;2.20;;;;;20.46;67.87;99199.66;5075298;28;46454;-65
2022/08/21 02:47:58;;;;;;;;;2.00;2.00;;;;;20.44;68.40;99185.53;5074368;28;45524;-65
2022/08/21 02:50:27;;;;;;;;;2.00;2.00;;;;;20.42;68.35;99181.28;5075989;28;45369;-63
2022/08/21 02:52:53;;;;;;;;;2.80;2.80;;;;;20.41;67.73;99185.78;5074829;28;45476;-63
2022/08/21 02:55:21;;;;;;;;;3.00;3.00;;;;;20.41;68.54;99188.47;5075462;28;45394;-66
2022/08/21 02:57:47;;;;;;;;;2.00;2.00;;;;;20.40;68.01;99176.03;5074906;28;45396;-65
2022/08/21 03:00:14;;;;;;;;;3.00;2.60;;;;;20.38;67.88;99186.03;5057699;28;45303;-65
2022/08/21 03:02:40;;;;;;;;;3.60;3.60;;;;;20.38;69.12;99190.53;5075573;28;45539;-65
2022/08/21 03:05:09;;;;;;;;;2.25;2.25;;;;;20.33;70.56;99181.97;5075435;28;45433;-65
2022/08/21 03:07:36;;;;;;;;;2.60;2.60;;;;;20.29;70.89;99186.69;5075040;28;45380;-65
2022/08/21 03:10:01;;;;;;;;;1.60;1.20;;;;;20.27;70.81;99179.78;5050902;28;45420;-65
2022/08/21 03:12:26;;;;;;;;;2.75;2.75;;;;;20.27;71.05;99179.78;5075031;28;45578;-65
2022/08/21 03:14:52;;;;;;;;;3.50;1.50;;;;;20.27;71.30;99182.47;5075440;28;45464;-65
2022/08/21 03:17:17;;;;;;;;;2.75;2.75;;;;;20.27;70.95;99174.44;5074658;28;45409;-65
2022/08/21 03:19:42;;;;;;;;;3.75;2.25;;;;;20.26;71.45;99184.28;5075192;28;45392;-65
2022/08/21 03:22:08;;;;;;;;;2.00;2.00;;;;;20.25;71.49;99174.56;5074464;28;45365;-62
2022/08/21 03:24:34;;;;;;;;;4.00;2.00;;;;;20.25;71.58;99171.03;5075468;28;45653;-63
2022/08/21 03:26:59;;;;;;;;;2.50;2.50;;;;;20.26;71.95;99172.72;5074664;28;45688;-63
2022/08/21 03:29:25;;;;;;;;;2.00;2.00;;;;;20.24;71.78;99175.53;5075368;28;45476;-63
2022/08/21 03:31:53;;;;;;;;;2.25;2.25;;;;;20.25;72.07;99165.66;5074753;28;45999;-64
2022/08/21 03:34:18;;;;;;;;;2.40;2.40;;;;;20.24;71.94;99164.81;5074744;28;46294;-64
2022/08/21 03:36:44;;;;;;;;;3.00;2.00;;;;;20.25;72.18;99163.84;5074154;28;45580;-64
2022/08/21 03:39:09;;;;;;;;;1.25;1.25;;;;;20.26;72.37;99162.03;5074740;28;45278;-64
2022/08/21 03:41:34;;;;;;;;;2.75;1.00;;;;;20.26;72.51;99159.34;5075066;28;45456;-64
2022/08/21 03:44:00;;;;;;;;;1.25;1.25;;;;;20.25;71.76;99161.16;5074692;28;46183;-66
2022/08/21 03:46:25;;;;;;;;;2.25;2.25;;;;;20.25;71.92;99157.63;5073855;28;45476;-66
2022/08/21 03:48:52;;;;;;;;;3.00;1.00;;;;;20.23;72.77;99160.44;5075127;28;45349;-66
2022/08/21 03:51:18;;;;;;;;;2.60;2.60;;;;;20.23;72.27;99165.78;5074646;28;45454;-66
2022/08/21 03:53:44;;;;;;;;;2.75;2.00;;;;;20.24;72.89;99164.81;5075078;28;46441;-66
2022/08/21 03:56:10;;;;;;;;;3.00;3.00;;;;;20.24;72.25;99172.84;5074634;28;45734;-66
2022/08/21 03:58:38;;;;;;;;;2.25;1.25;;;;;20.22;72.06;99172.13;5074683;28;45336;-66
2022/08/21 04:01:05;;;;;;;;;2.40;2.40;;;;;20.21;71.90;99171.25;5074408;28;45388;-65
2022/08/21 04:03:32;;;;;;;;;3.60;3.00;;;;;20.20;71.82;99171.38;5072459;28;45814;-65
2022/08/21 04:05:58;;;;;;;;;3.60;3.00;;;;;20.16;71.99;99178.78;5074142;28;45378;-65
2022/08/21 04:08:23;;;;;;;;;2.00;2.00;;;;;20.14;71.77;99170.03;5074734;28;45503;-61
2022/08/21 04:10:52;;;;;;;;;4.50;3.25;;;;;20.14;72.16;99175.38;5074074;28;45363;-61
2022/08/21 04:13:18;;;;;;;;;17.00;16.75;;;;;20.13;72.39;99175.50;5073315;28;45558;-62
2022/08/21 04:15:44;;;;;;;;;5.60;5.60;;;;;20.11;72.50;99178.28;5073848;28;45434;-61
2022/08/21 04:18:09;;;;;;;;;3.00;3.00;;;;;20.10;73.23;99176.63;5073673;28;45514;-61
2022/08/21 04:20:35;;;;;;;;;3.00;3.00;;;;;20.10;73.64;99178.44;5074049;28;45547;-61
2022/08/21 04:23:02;;;;;;;;;2.25;2.25;;;;;20.08;73.58;99188.41;5072863;28;46252;-61
2022/08/21 04:25:28;;;;;;;;;3.00;2.00;;;;;20.04;74.01;99182.44;5072859;28;45415;-61
2022/08/21 04:27:54;;;;;;;;;2.20;2.20;;;;;20.03;73.94;99179.88;5072188;28;45483;-61
2022/08/21 04:30:20;;;;;;;;;3.00;3.00;;;;;20.02;73.91;99187.06;5056189;28;45472;-61
2022/08/21 04:32:50;;;;;;;;;2.00;2.00;;;;;19.99;73.86;99186.44;5073028;28;45776;-61
2022/08/21 04:35:20;;;;;;;;;2.00;2.00;;;;;19.95;73.95;99185.81;5073968;28;45381;-61
2022/08/21 04:37:46;;;;;;;;;2.80;2.00;;;;;19.92;74.36;99188.75;5073241;28;45398;-61
2022/08/21 04:40:14;;;;;;;;;2.00;2.00;;;;;19.89;74.52;99183.63;5073459;28;45537;-61
2022/08/21 04:42:49;;;;;;;;;1.20;1.00;;;;;19.87;74.79;99182.88;5072612;28;45706;-61
2022/08/21 04:45:29;;;;;;;;;3.00;2.80;;;;;19.86;74.79;99184.72;5073773;28;45388;-60
2022/08/21 04:47:57;;;;;;;;;3.00;3.00;;;;;19.85;74.78;99180.31;5073129;28;45512;-61
2022/08/21 04:50:31;;;;;;;;;2.20;2.20;;;;;19.84;74.83;99189.31;5073795;28;45453;-63
2022/08/21 04:52:57;;;;;;;;;1.00;1.00;;;;;19.86;74.80;99192.75;5072585;28;46459;-60
2022/08/21 04:55:24;;;;;;;;;2.00;2.00;;;;;19.86;74.96;99191.88;5066193;28;45432;-61
2022/08/21 04:57:53;;;;;;;;;3.00;3.00;;;;;19.84;74.77;99191.16;5054374;28;45499;-67
2022/08/21 05:00:20;;;;;;;;;2.60;2.60;;;;;19.87;75.15;99193.59;5073218;28;45485;-64
2022/08/21 05:02:47;;;;;;;;;1.40;1.40;;;;;19.85;75.38;99196.38;5073313;28;46731;-63
2022/08/21 05:05:13;;;;;;;;;3.00;3.00;;;;;19.85;75.26;99196.38;5073103;28;45394;-64
2022/08/21 05:07:39;;;;;;;;;2.25;2.25;;;;;19.84;74.89;99201.84;5073165;28;45469;-65
2022/08/21 05:10:07;;;;;;;;;3.00;3.00;;;;;19.82;75.05;99201.13;5055149;28;45397;-66
2022/08/21 05:12:33;;;;;;;;;4.00;3.00;;;;;19.81;75.49;99199.41;5072758;28;45527;-64
2022/08/21 05:14:59;;;;;;;;;3.20;3.20;;;;;19.82;75.33;99195.75;5055745;28;45330;-67
2022/08/21 05:17:24;;;;;;;;;3.00;3.00;;;;;19.81;75.54;99197.59;5072781;28;45450;-66
2022/08/21 05:19:49;;;;;;;;;3.00;2.00;;;;;19.81;75.39;99200.25;5073470;28;45508;-64
2022/08/21 05:22:24;;;;;;;;;3.00;1.50;;;;;19.81;75.66;99202.06;5072647;28;45452;-64
2022/08/21 05:24:51;;;;;;;;;2.00;2.00;;;;;19.82;75.50;99201.13;5073992;28;45333;-66
2022/08/21 05:27:16;;;;;;;;;2.00;2.00;;;;;19.82;75.19;99212.66;5072683;28;45486;-63
2022/08/21 05:29:42;;;;;;;;;3.00;3.00;;;;;19.82;75.75;99210.00;5073779;28;45333;-63
2022/08/21 05:32:10;;;;;;;;;3.00;3.00;;;;;19.86;75.22;99213.28;5072908;28;46288;-62
2022/08/21 05:34:36;;;;;;;;;4.00;2.00;;;;;19.89;75.08;99206.84;5073537;28;45556;-64
2022/08/21 05:37:02;;;;;;;;;2.00;2.00;;;;;19.91;75.25;99212.94;5073052;28;45535;-65
2022/08/21 05:39:28;;;;;;;;;2.75;2.75;;;;;19.94;74.74;99215.41;5073954;28;45510;-64
2022/08/21 05:41:53;;;;;;;;;3.25;2.25;;;;;19.94;75.29;99208.19;5075912;28;46370;-64
2022/08/21 05:44:18;;;;;;;;;3.00;3.00;;;;;19.96;75.41;99208.06;5076234;28;45413;-64
2022/08/21 05:46:44;;;;;;;;;3.00;3.00;;;;;19.98;74.96;99212.34;5076589;28;45496;-64
2022/08/21 05:49:10;;;;;;;;;2.50;2.00;;;;;19.99;74.93;99210.53;5077127;28;45431;-64
2022/08/21 05:51:36;;;;;;;;;2.40;2.40;;;;;19.98;74.83;99208.81;5076235;28;45430;-64
2022/08/21 05:54:01;;;;;;;;;4.75;3.00;;;;;19.99;75.02;99213.19;5076315;28;45369;-64
2022/08/21 05:56:26;;;;;;;;;3.75;2.75;;;;;20.02;75.35;99218.31;5076342;28;45781;-64
2022/08/21 05:58:52;;;;;;;;;2.00;2.00;;;;;20.04;74.75;99217.22;5075733;28;45558;-64
2022/08/21 06:01:17;;;;;;;;;2.00;1.00;;;;;19.99;74.55;99219.41;5075762;28;45818;-64
2022/08/21 06:03:42;;;;;;;;;4.00;3.00;;;;;19.82;74.48;99222.50;5076075;28;45530;-64
2022/08/21 06:06:09;;;;;;;;;2.25;2.25;;;;;19.70;74.48;99223.47;5057911;28;45386;-63
2022/08/21 06:08:35;;;;;;;;;3.20;3.20;;;;;19.62;75.09;99229.38;5075958;28;45463;-65
2022/08/21 06:11:03;;;;;;;;;2.60;2.60;;;;;19.58;75.17;99232.41;5075667;28;47304;-66
2022/08/21 06:13:29;;;;;;;;;2.80;2.80;;;;;19.47;75.05;99228.69;5074420;28;45372;-66
2022/08/21 06:16:14;;;;;;;;;3.00;2.00;;;;;19.38;75.80;99226.69;5075498;28;45518;-66
2022/08/21 06:18:40;;;;;;;;;4.00;2.80;;;;;19.29;76.06;99222.03;5069843;28;45590;-65
2022/08/21 06:21:06;;;;;;;;;3.75;3.75;;;;;19.22;76.60;99239.50;5072239;28;46488;-67
2022/08/21 06:23:32;;;;;;;;;3.60;3.60;;;;;19.14;76.76;99225.81;5074379;28;45492;-64
2022/08/21 06:25:58;;;;;;;;;3.40;3.40;;;;;19.08;76.92;99231.66;5074206;28;45771;-65
2022/08/21 06:28:23;;;;;;;;;4.50;3.00;;;;;19.07;78.06;99235.28;5068435;28;45506;-66
2022/08/21 06:30:49;;;;;;;;;3.50;2.75;;;;;19.03;78.03;99231.13;5075791;28;46473;-63
2022/08/21 06:33:14;;;;;;;;;2.25;2.25;;;;;19.00;77.87;99228.66;5074828;28;45478;-60
2022/08/21 06:35:39;;;;;;;;;3.50;3.50;;;;;18.99;78.21;99229.63;5074550;28;45558;-61
2022/08/21 06:38:05;;;;;;;;;3.00;3.00;;;;;19.00;78.71;99226.00;5055980;28;45437;-59
2022/08/21 06:40:31;;;;;;;;;1.75;1.75;;;;;19.03;78.46;99229.31;5073679;28;47692;-58
2022/08/21 06:42:57;;;;;;;;;4.60;3.60;;;;;19.06;78.04;99228.22;5074421;28;45338;-60
2022/08/21 06:45:23;;;;;;;;;3.25;3.25;;;;;19.06;78.28;99218.38;5075655;27;45609;-69
2022/08/21 06:47:48;;;;;;;;;3.50;3.50;;;;;19.09;78.33;99223.53;5073999;28;45345;-69
2022/08/21 06:50:14;;;;;;;;;3.25;2.25;;;;;19.14;77.76;99220.47;5075515;28;45397;-63
2022/08/21 06:52:39;;;;;;;;;3.00;3.00;;;;;19.20;77.63;99221.88;5052918;28;45263;-64
2022/08/21 06:55:08;;;;;;;;;3.25;2.00;;;;;19.26;77.58;99222.28;5075498;28;45495;-64
2022/08/21 06:57:34;;;;;;;;;3.00;3.00;;;;;19.37;77.65;99232.16;5074707;28;45461;-69
2022/08/21 06:59:59;;;;;;;;;2.25;2.25;;;;;19.42;77.30;99222.84;5075800;28;46320;-70
2022/08/21 07:02:25;;;;;;;;;5.75;4.00;;;;;19.52;76.71;99231.03;5075122;28;45477;-70
2022/08/21 07:04:50;;;;;;;;;2.25;2.25;;;;;19.60;76.20;99225.13;5075525;28;45463;-69
2022/08/21 07:07:16;;;;;;;;;2.50;2.00;;;;;19.66;76.18;99230.00;5074466;28;45591;-70
2022/08/21 07:09:42;;;;;;;;;3.00;2.00;;;;;19.72;75.82;99232.22;5074623;28;45394;-70
2022/08/21 07:12:09;;;;;;;;;4.00;3.00;;;;;19.79;76.10;99233.44;5073660;28;45358;-70
2022/08/21 07:14:36;;;;;;;;;4.80;4.00;;;;;19.87;75.81;99228.38;5074638;28;45508;-68
2022/08/21 07:17:01;;;;;;;;;3.25;3.25;;;;;19.93;75.22;99235.09;5073273;28;45583;-68
2022/08/21 07:19:27;;;;;;;;;5.25;4.25;;;;;19.98;74.92;99235.56;5074737;28;46451;-68
2022/08/21 07:21:58;;;;;;;;;3.50;3.50;;;;;20.05;74.82;99236.81;5074225;28;45461;-68
2022/08/21 07:24:23;;;;;;;;;4.00;4.00;;;;;20.11;74.83;99230.97;5071201;28;45379;-65
2022/08/21 07:26:48;;;;;;;;;3.00;3.00;;;;;20.16;74.23;99229.66;5074707;28;45529;-68
2022/08/21 07:29:14;;;;;;;;;3.00;3.00;;;;;20.24;73.70;99222.88;5075414;28;45498;-64
2022/08/21 07:31:40;;;;;;;;;2.00;2.00;;;;;20.30;73.27;99220.53;5073401;28;45540;-67
2022/08/21 07:34:05;;;;;;;;;4.00;4.00;;;;;20.38;73.28;99214.63;5075158;28;45559;-67
2022/08/21 07:36:31;;;;;;;;;5.25;4.25;;;;;20.44;73.40;99217.66;5077154;27;45582;-67
2022/08/21 07:38:56;;;;;;;;;3.00;1.00;;;;;20.50;72.43;99219.00;5073703;28;46420;-61
2022/08/21 07:41:28;;;;;;;;;3.00;3.00;;;;;20.57;73.05;99222.06;5074231;28;45433;-65
2022/08/21 07:43:53;;;;;;;;;4.00;4.00;;;;;20.65;71.97;99216.94;5074192;28;45482;-65
2022/08/21 07:46:19;;;;;;;;;3.50;3.50;;;;;20.72;72.15;99215.47;5074882;28;45381;-65
2022/08/21 07:48:45;;;;;;;;;4.75;3.25;;;;;20.77;72.09;99214.16;5074576;28;46338;-64
2022/08/21 07:51:13;;;;;;;;;3.25;3.00;;;;;20.80;71.18;99211.19;5073421;28;45393;-64
2022/08/21 07:53:39;;;;;;;;;3.40;3.40;;;;;20.84;70.90;99209.13;5073771;28;45393;-65
2022/08/21 07:56:07;;;;;;;;;2.00;2.00;;;;;20.89;71.18;99210.47;5073921;28;45436;-65
2022/08/21 07:58:34;;;;;;;;;3.00;3.00;;;;;20.96;70.70;99204.59;5073972;28;47391;-64
2022/08/21 08:01:00;;;;;;;;;3.80;3.60;;;;;21.02;70.94;99209.47;5073406;28;45542;-70
2022/08/21 08:03:25;;;;;;;;;2.00;2.00;;;;;21.05;70.19;99202.03;5072387;28;45313;-70
2022/08/21 08:05:51;;;;;;;;;4.00;3.75;;;;;21.09;69.70;99199.94;5074003;28;45417;-69
2022/08/21 08:08:17;;;;;;;;;2.75;2.00;;;;;21.11;69.92;99198.00;5073849;28;46455;-68
2022/08/21 08:10:43;;;;;;;;;2.00;2.00;;;;;21.15;69.93;99186.88;5074099;28;45373;-70
2022/08/21 08:13:09;;;;;;;;;3.00;3.00;;;;;21.23;69.16;99188.97;5052823;28;45444;-69
2022/08/21 08:15:36;;;;;;;;;2.00;2.00;;;;;21.28;69.78;99172.50;5074346;28;45420;-70
2022/08/21 08:18:01;;;;;;;;;2.40;2.40;;;;;21.33;69.73;99175.63;5072214;28;46365;-69
2022/08/21 08:20:27;;;;;;;;;2.25;2.25;;;;;21.38;68.68;99174.28;5074603;28;45392;-67
2022/08/21 08:22:54;;;;;;;;;4.25;4.25;;;;;21.42;68.40;99169.53;5073967;28;45381;-72
2022/08/21 08:25:20;;;;;;;;;4.40;4.00;;;;;21.43;68.73;99166.72;5074037;28;45462;-71
2022/08/21 08:27:45;;;;;;;;;4.80;3.60;;;;;21.45;67.78;99174.63;5073409;28;45728;-71
2022/08/21 08:30:13;;;;;;;;;4.00;3.00;;;;;21.49;67.92;99174.22;5073770;28;45518;-68
2022/08/21 08:32:39;;;;;;;;;3.00;3.00;;;;;21.55;68.14;99171.03;5073772;28;45564;-68
2022/08/21 08:35:06;;;;;;;;;3.00;3.00;;;;;21.63;67.58;99166.84;5073023;28;45475;-68
2022/08/21 08:37:32;;;;;;;;;3.80;3.80;;;;;21.71;68.06;99159.84;5072471;28;45549;-67
2022/08/21 08:39:57;;;;;;;;;5.00;3.80;;;;;21.80;67.55;99159.06;5073452;28;45433;-74
2022/08/21 08:42:31;;;;;;;;;2.75;2.75;;;;;21.90;67.12;99157.28;5072438;28;45551;-69
2022/08/21 08:45:17;;;;;;;;;4.20;4.20;;;;;21.99;66.48;99149.41;5073769;28;45480;-68
2022/08/21 08:47:58;;;;;;;;;4.00;3.20;;;;;22.07;66.60;99153.19;5071762;28;46501;-69
2022/08/21 08:50:30;;;;;;;;;3.00;3.00;;;;;22.12;65.92;99142.06;5072310;28;45444;-67
2022/08/21 08:53:05;;;;;;;;;4.00;4.00;;;;;22.17;65.53;99139.78;5072798;28;45477;-70
2022/08/21 08:55:37;;;;;;;;;3.00;3.00;;;;;22.21;65.89;99130.50;5055147;28;45514;-69
2022/08/21 08:58:03;;;;;;;;;2.80;2.00;;;;;22.28;65.68;99124.47;5072949;28;46395;-69
2022/08/21 09:00:31;;;;;;;;;4.00;4.00;;;;;22.37;65.16;99130.84;5073568;28;45340;-71
2022/08/21 09:03:00;;;;;;;;;3.20;3.20;;;;;22.43;65.14;99124.09;5071994;28;45678;-68
2022/08/21 09:05:32;;;;;;;;;4.20;4.20;;;;;22.50;65.08;99123.38;5069653;28;45408;-73
2022/08/21 09:08:18;;;;;;;;;4.00;3.40;;;;;22.58;64.49;99115.50;5071389;28;47018;-74
2022/08/21 09:10:49;;;;;;;;;2.00;2.00;;;;;22.64;64.45;99120.31;5074049;28;45442;-74
2022/08/21 09:13:30;;;;;;;;;4.00;4.00;;;;;22.71;64.01;99112.56;5071622;28;45392;-68
2022/08/21 09:16:46;;;;;;;;;2.60;2.60;;;;;22.79;63.30;99114.59;5075926;28;45399;-69
2022/08/21 09:19:14;;;;;;;;;1.00;1.00;;;;;22.82;62.75;99114.28;5070627;28;45495;-63
2022/08/21 09:22:09;;;;;;;;;3.20;3.20;;;;;22.85;62.99;99108.66;5076503;28;45290;-60
2022/08/21 09:24:35;;;;;;;;;4.00;4.00;;;;;22.94;62.78;99115.91;5048984;28;45582;-67
2022/08/21 09:27:15;;;;;;;;;2.75;2.75;;;;;23.05;62.56;99104.16;5076020;28;45607;-67
2022/08/21 09:29:47;;;;;;;;;5.20;5.20;;;;;23.12;61.16;99111.53;5077095;28;45449;-67
2022/08/21 09:32:19;;;;;;;;;4.20;4.20;;;;;23.13;60.85;99105.13;5076337;28;45436;-67
2022/08/21 09:35:09;;;;;;;;;3.00;3.00;;;;;23.14;61.45;99104.13;5076025;28;45456;-60
2022/08/21 09:37:47;;;;;;;;;3.20;1.80;;;;;23.19;60.81;99092.97;5062074;28;45413;-68
2022/08/21 09:40:38;;;;;;;;;3.00;3.00;;;;;23.21;61.62;99091.84;5063407;28;47395;-65
2022/08/21 09:43:25;;;;;;;;;2.80;2.80;;;;;23.24;61.10;99090.69;5057667;28;45525;-62
2022/08/21 09:46:03;;;;;;;;;3.00;2.40;;;;;23.30;61.29;99098.19;5059619;28;45446;-75
2022/08/21 09:48:32;;;;;;;;;3.60;3.60;;;;;23.35;61.35;99081.63;5056264;28;45466;-72
2022/08/21 09:51:10;;;;;;;;;3.40;3.40;;;;;23.41;60.69;99089.97;5055519;28;46673;-71
2022/08/21 09:53:42;;;;;;;;;3.20;3.00;;;;;23.48;60.08;99085.69;5051287;28;45527;-70
2022/08/21 09:59:31;;;;;;;;;3.20;3.00;;;;;23.66;59.71;99072.38;5053381;28;45348;-68
2022/08/21 10:02:01;;;;;;;;;3.00;3.00;;;;;23.74;59.83;99069.84;5062117;28;45724;-68
2022/08/21 10:04:35;;;;;;;;;3.20;3.20;;;;;23.81;58.91;99076.31;5057824;28;45422;-68
2022/08/21 10:07:14;;;;;;;;;4.80;4.80;;;;;23.84;58.49;99049.09;5056440;28;45568;-67
2022/08/21 10:09:41;;;;;;;;;3.00;3.00;;;;;23.90;58.70;99053.06;5055955;28;45367;-68
2022/08/21 10:12:06;;;;;;;;;2.40;2.40;;;;;23.91;57.98;99049.38;5060911;28;46254;-68
2022/08/21 10:15:01;;;;;;;;;4.50;4.50;;;;;23.94;58.68;99041.00;5067414;28;45377;-68
2022/08/21 10:17:57;;;;;;;;;3.20;3.20;;;;;23.96;59.04;99025.56;5057657;28;45512;-68
2022/08/21 10:20:29;;;;;;;;;1.80;1.60;;;;;24.01;58.98;99032.16;5069944;28;45427;-68
2022/08/21 10:22:54;;;;;;;;;3.80;3.80;;;;;24.10;57.54;99022.34;5063902;28;46551;-68
2022/08/21 10:25:23;;;;;;;;;4.25;4.25;;;;;24.12;57.42;99039.22;5055542;28;45493;-68
2022/08/21 10:28:10;;;;;;;;;3.20;3.20;;;;;24.20;58.41;99030.38;5057094;28;45630;-68
2022/08/21 10:30:50;;;;;;;;;5.00;4.60;;;;;24.26;57.07;99030.66;5056200;28;45391;-68
2022/08/21 10:33:37;;;;;;;;;4.20;3.60;;;;;24.33;56.68;99018.28;5059255;28;45477;-68
2022/08/21 10:36:46;;;;;;;;;2.80;2.80;;;;;24.44;57.22;99017.22;5056455;28;45440;-68
2022/08/21 10:39:14;;;;;;;;;4.00;3.00;;;;;24.56;56.47;99021.41;5020933;28;45539;-68
2022/08/21 10:41:51;;;;;;;;;3.00;2.80;;;;;24.62;57.14;99004.63;5054721;28;45544;-68
2022/08/21 10:44:28;;;;;;;;;3.00;3.00;;;;;24.69;56.58;99004.84;5051790;28;45606;-67
2022/08/21 10:47:04;;;;;;;;;3.00;3.00;;;;;24.78;56.14;99001.25;5051912;28;45413;-68
2022/08/21 10:49:39;;;;;;;;;2.40;2.40;;;;;24.88;55.41;99010.09;5055126;28;45504;-68
2022/08/21 10:52:21;;;;;;;;;1.80;1.80;;;;;24.94;54.45;98987.06;5055323;28;45452;-67
2022/08/21 10:54:59;;;;;;;;;1.40;1.40;;;;;25.03;55.14;99005.00;5056075;28;46364;-68
2022/08/21 10:57:46;;;;;;;;;2.60;2.60;;;;;25.04;54.13;98994.06;5054225;28;45434;-68
2022/08/21 11:00:15;;;;;;;;;2.40;1.80;;;;;25.08;54.17;99002.72;5057724;28;45495;-61
2022/08/21 11:02:53;;;;;;;;;2.00;2.00;;;;;25.10;53.77;98972.88;5056589;28;45299;-72
2022/08/21 11:05:38;;;;;;;;;3.00;3.00;;;;;25.16;54.04;98978.47;5055567;28;45485;-69
2022/08/21 11:08:14;;;;;;;;;1.40;1.40;;;;;25.23;52.98;98971.44;5054220;28;45500;-76
2022/08/21 11:10:48;;;;;;;;;3.00;3.00;;;;;25.27;52.68;98969.28;5052250;28;45565;-73
2022/08/21 11:13:37;;;;;;;;;2.00;2.00;;;;;25.31;52.78;98959.84;5053738;28;45421;-76
2022/08/21 11:16:07;;;;;;;;;2.00;2.00;;;;;25.38;52.83;98964.47;5057042;28;45669;-72
2022/08/21 11:18:36;;;;;;;;;1.80;1.80;;;;;25.48;52.00;98971.59;5054478;28;45366;-71
2022/08/21 11:21:37;;;;;;;;;4.80;1.60;;;;;25.60;51.75;98959.53;5057331;28;45392;-72
2022/08/21 11:24:15;;;;;;;;;1.40;1.40;;;;;25.75;51.80;98963.34;5038352;28;45483;-74
2022/08/21 11:27:17;;;;;;;;;2.80;2.80;;;;;25.89;51.59;98965.44;5033823;28;47070;-75
2022/08/21 11:29:49;;;;;;;;;1.80;1.80;;;;;25.97;50.70;98946.56;5053744;28;45588;-74
2022/08/21 11:32:50;;;;;;;;;1.80;1.80;;;;;25.99;50.68;98947.22;5053576;28;45422;-76
2022/08/21 11:36:03;;;;;;;;;1.80;1.80;;;;;26.03;50.06;98955.88;4988478;28;45452;-69
2022/08/21 11:38:42;;;;;;;;;0.60;0.60;;;;;26.10;50.35;98954.22;5004391;28;45577;-67
2022/08/21 11:41:18;;;;;;;;;4.40;4.40;;;;;26.11;49.15;98968.56;5004369;28;45370;-74
2022/08/21 11:43:53;;;;;;;;;2.00;2.00;;;;;26.11;49.34;98941.53;5043756;28;45576;-70
2022/08/21 11:46:28;;;;;;;;;1.80;1.80;;;;;26.12;49.26;98960.31;5053198;28;45471;-70
2022/08/21 11:49:12;;;;;;;;;2.80;2.80;;;;;26.08;48.78;98957.06;5053200;28;45738;-72